sensor_id;sensor_type;location;lat;lon;timestamp;P1;durP1;ratioP1;P2;durP2;ratioP2
64037;SDS011;54641;50.168;8.492;2022-08-19T00:00:39;18.20;;;14.30;;
64037;SDS011;54641;50.168;8.492;2022-08-19T00:03:10;19.60;;;15.10;;
64037;SDS011;54641;50.168;8.492;2022-08-19T00:05:42;19.30;;;14.40;;
64037;SDS011;54641;50.168;8.492;2022-08-19T00:08:18;18.50;;;13.90;;
64037;SDS011;54641;50.168;8.492;2022-08-19T00:10:49;17.50;;;13.50;;
64037;SDS011;54641;50.168;8.492;2022-08-19T00:13:20;18.90;;;13.70;;
64037;SDS011;54641;50.168;8.492;2022-08-19T00:15:52;17.80;;;13.60;;
64037;SDS011;54641;50.168;8.492;2022-08-19T00:18:26;18.30;;;13.40;;
64037;SDS011;54641;50.168;8.492;2022-08-19T00:20:58;17.40;;;12.70;;
64037;SDS011;54641;50.168;8.492;2022-08-19T00:23:30;17.60;;;14.10;;
64037;SDS011;54641;50.168;8.492;2022-08-19T00:26:03;15.80;;;12.60;;
64037;SDS011;54641;50.168;8.492;2022-08-19T00:28:40;17.00;;;12.90;;
64037;SDS011;54641;50.168;8.492;2022-08-19T00:31:13;18.90;;;13.30;;
64037;SDS011;54641;50.168;8.492;2022-08-19T00:36:19;15.20;;;12.30;;
64037;SDS011;54641;50.168;8.492;2022-08-19T00:38:56;15.80;;;11.80;;
64037;SDS011;54641;50.168;8.492;2022-08-19T00:41:28;16.20;;;12.40;;
64037;SDS011;54641;50.168;8.492;2022-08-19T00:44:02;16.50;;;12.50;;
64037;SDS011;54641;50.168;8.492;2022-08-19T00:46:39;14.00;;;11.10;;
64037;SDS011;54641;50.168;8.492;2022-08-19T00:49:24;16.20;;;11.70;;
64037;SDS011;54641;50.168;8.492;2022-08-19T00:51:59;13.80;;;11.20;;
64037;SDS011;54641;50.168;8.492;2022-08-19T00:54:35;16.80;;;12.00;;
64037;SDS011;54641;50.168;8.492;2022-08-19T00:57:09;15.20;;;11.70;;
64037;SDS011;54641;50.168;8.492;2022-08-19T00:59:42;14.10;;;11.20;;
64037;SDS011;54641;50.168;8.492;2022-08-19T01:02:30;16.10;;;11.70;;
64037;SDS011;54641;50.168;8.492;2022-08-19T01:05:06;15.50;;;12.00;;
64037;SDS011;54641;50.168;8.492;2022-08-19T01:07:39;13.00;;;10.70;;
64037;SDS011;54641;50.168;8.492;2022-08-19T01:10:13;15.00;;;11.00;;
64037;SDS011;54641;50.168;8.492;2022-08-19T01:12:46;13.00;;;10.70;;
64037;SDS011;54641;50.168;8.492;2022-08-19T01:15:20;14.70;;;11.40;;
64037;SDS011;54641;50.168;8.492;2022-08-19T01:18:00;13.50;;;10.50;;
64037;SDS011;54641;50.168;8.492;2022-08-19T01:20:35;14.80;;;11.80;;
64037;SDS011;54641;50.168;8.492;2022-08-19T01:23:10;13.30;;;11.10;;
64037;SDS011;54641;50.168;8.492;2022-08-19T01:25:44;15.90;;;11.80;;
64037;SDS011;54641;50.168;8.492;2022-08-19T01:28:19;12.80;;;10.20;;
64037;SDS011;54641;50.168;8.492;2022-08-19T01:31:05;15.30;;;11.90;;
64037;SDS011;54641;50.168;8.492;2022-08-19T01:33:55;12.20;;;10.20;;
64037;SDS011;54641;50.168;8.492;2022-08-19T01:38:59;14.90;;;11.40;;
64037;SDS011;54641;50.168;8.492;2022-08-19T01:41:33;14.80;;;11.80;;
64037;SDS011;54641;50.168;8.492;2022-08-19T01:44:05;15.50;;;10.90;;
64037;SDS011;54641;50.168;8.492;2022-08-19T01:46:46;12.50;;;10.90;;
64037;SDS011;54641;50.168;8.492;2022-08-19T01:49:20;16.60;;;11.80;;
64037;SDS011;54641;50.168;8.492;2022-08-19T01:51:53;14.40;;;10.90;;
64037;SDS011;54641;50.168;8.492;2022-08-19T01:54:27;14.00;;;11.00;;
64037;SDS011;54641;50.168;8.492;2022-08-19T01:56:59;17.00;;;11.80;;
64037;SDS011;54641;50.168;8.492;2022-08-19T01:59:32;14.20;;;10.70;;
64037;SDS011;54641;50.168;8.492;2022-08-19T02:02:04;15.60;;;10.00;;
64037;SDS011;54641;50.168;8.492;2022-08-19T02:09:08;13.80;;;10.90;;
64037;SDS011;54641;50.168;8.492;2022-08-19T02:11:39;12.60;;;9.80;;
64037;SDS011;54641;50.168;8.492;2022-08-19T02:16:43;13.80;;;9.80;;
64037;SDS011;54641;50.168;8.492;2022-08-19T02:19:14;14.20;;;10.70;;
64037;SDS011;54641;50.168;8.492;2022-08-19T02:21:46;15.90;;;10.00;;
64037;SDS011;54641;50.168;8.492;2022-08-19T02:24:19;12.50;;;9.40;;
64037;SDS011;54641;50.168;8.492;2022-08-19T02:26:52;11.20;;;9.20;;
64037;SDS011;54641;50.168;8.492;2022-08-19T02:29:24;12.50;;;10.40;;
64037;SDS011;54641;50.168;8.492;2022-08-19T02:31:55;15.80;;;11.00;;
64037;SDS011;54641;50.168;8.492;2022-08-19T02:34:28;14.30;;;10.70;;
64037;SDS011;54641;50.168;8.492;2022-08-19T02:36:59;14.20;;;10.40;;
64037;SDS011;54641;50.168;8.492;2022-08-19T02:39:31;13.90;;;10.40;;
64037;SDS011;54641;50.168;8.492;2022-08-19T02:42:06;14.70;;;10.30;;
64037;SDS011;54641;50.168;8.492;2022-08-19T02:44:38;13.50;;;9.70;;
64037;SDS011;54641;50.168;8.492;2022-08-19T02:47:12;13.50;;;10.60;;
64037;SDS011;54641;50.168;8.492;2022-08-19T02:49:43;12.20;;;9.90;;
64037;SDS011;54641;50.168;8.492;2022-08-19T02:52:16;16.10;;;10.50;;
64037;SDS011;54641;50.168;8.492;2022-08-19T02:54:48;13.00;;;9.90;;
64037;SDS011;54641;50.168;8.492;2022-08-19T02:57:19;11.70;;;10.40;;
64037;SDS011;54641;50.168;8.492;2022-08-19T02:59:50;13.00;;;10.20;;
64037;SDS011;54641;50.168;8.492;2022-08-19T03:02:22;11.10;;;9.20;;
64037;SDS011;54641;50.168;8.492;2022-08-19T03:04:54;11.60;;;8.70;;
64037;SDS011;54641;50.168;8.492;2022-08-19T03:07:27;11.50;;;9.10;;
64037;SDS011;54641;50.168;8.492;2022-08-19T03:10:00;13.00;;;9.70;;
64037;SDS011;54641;50.168;8.492;2022-08-19T03:12:34;12.30;;;10.00;;
64037;SDS011;54641;50.168;8.492;2022-08-19T03:15:08;13.20;;;9.70;;
64037;SDS011;54641;50.168;8.492;2022-08-19T03:17:41;13.20;;;9.20;;
64037;SDS011;54641;50.168;8.492;2022-08-19T03:20:13;12.20;;;8.00;;
64037;SDS011;54641;50.168;8.492;2022-08-19T03:22:46;10.30;;;8.50;;
64037;SDS011;54641;50.168;8.492;2022-08-19T03:25:19;11.30;;;9.60;;
64037;SDS011;54641;50.168;8.492;2022-08-19T03:30:22;10.70;;;9.20;;
64037;SDS011;54641;50.168;8.492;2022-08-19T03:32:56;9.80;;;8.60;;
64037;SDS011;54641;50.168;8.492;2022-08-19T03:38:00;12.50;;;8.40;;
64037;SDS011;54641;50.168;8.492;2022-08-19T03:40:35;9.00;;;7.60;;
64037;SDS011;54641;50.168;8.492;2022-08-19T03:43:10;9.50;;;8.40;;
64037;SDS011;54641;50.168;8.492;2022-08-19T03:45:43;9.80;;;7.80;;
64037;SDS011;54641;50.168;8.492;2022-08-19T03:48:17;11.20;;;8.90;;
64037;SDS011;54641;50.168;8.492;2022-08-19T03:50:49;9.70;;;7.80;;
64037;SDS011;54641;50.168;8.492;2022-08-19T03:53:21;10.80;;;7.90;;
64037;SDS011;54641;50.168;8.492;2022-08-19T03:55:55;9.70;;;7.10;;
64037;SDS011;54641;50.168;8.492;2022-08-19T03:58:29;10.60;;;7.60;;
64037;SDS011;54641;50.168;8.492;2022-08-19T04:01:06;8.80;;;7.00;;
64037;SDS011;54641;50.168;8.492;2022-08-19T04:03:39;8.20;;;7.00;;
64037;SDS011;54641;50.168;8.492;2022-08-19T04:06:14;7.50;;;5.90;;
64037;SDS011;54641;50.168;8.492;2022-08-19T04:08:50;8.20;;;6.60;;
64037;SDS011;54641;50.168;8.492;2022-08-19T04:11:24;8.60;;;6.40;;
64037;SDS011;54641;50.168;8.492;2022-08-19T04:14:11;11.30;;;6.70;;
64037;SDS011;54641;50.168;8.492;2022-08-19T04:16:45;7.60;;;6.00;;
64037;SDS011;54641;50.168;8.492;2022-08-19T04:19:18;6.20;;;5.40;;
64037;SDS011;54641;50.168;8.492;2022-08-19T04:21:51;9.50;;;5.80;;
64037;SDS011;54641;50.168;8.492;2022-08-19T04:24:23;6.60;;;5.70;;
64037;SDS011;54641;50.168;8.492;2022-08-19T04:26:55;8.40;;;5.50;;
64037;SDS011;54641;50.168;8.492;2022-08-19T04:29:28;8.00;;;6.00;;
64037;SDS011;54641;50.168;8.492;2022-08-19T04:32:00;7.50;;;6.10;;
64037;SDS011;54641;50.168;8.492;2022-08-19T04:34:36;7.40;;;6.00;;
64037;SDS011;54641;50.168;8.492;2022-08-19T04:37:29;7.00;;;6.20;;
64037;SDS011;54641;50.168;8.492;2022-08-19T04:40:04;7.60;;;6.10;;
64037;SDS011;54641;50.168;8.492;2022-08-19T04:42:53;6.80;;;5.70;;
64037;SDS011;54641;50.168;8.492;2022-08-19T04:45:24;6.70;;;6.00;;
64037;SDS011;54641;50.168;8.492;2022-08-19T04:48:03;7.50;;;5.70;;
64037;SDS011;54641;50.168;8.492;2022-08-19T04:50:54;6.90;;;5.60;;
64037;SDS011;54641;50.168;8.492;2022-08-19T04:53:26;8.10;;;6.40;;
64037;SDS011;54641;50.168;8.492;2022-08-19T04:56:06;9.90;;;5.80;;
64037;SDS011;54641;50.168;8.492;2022-08-19T04:58:40;7.80;;;5.50;;
64037;SDS011;54641;50.168;8.492;2022-08-19T05:01:13;6.80;;;5.20;;
64037;SDS011;54641;50.168;8.492;2022-08-19T05:03:51;8.00;;;5.50;;
64037;SDS011;54641;50.168;8.492;2022-08-19T05:06:24;9.20;;;5.80;;
64037;SDS011;54641;50.168;8.492;2022-08-19T05:08:57;7.10;;;5.70;;
64037;SDS011;54641;50.168;8.492;2022-08-19T05:11:31;6.10;;;5.00;;
64037;SDS011;54641;50.168;8.492;2022-08-19T05:14:04;7.50;;;5.70;;
64037;SDS011;54641;50.168;8.492;2022-08-19T05:16:40;7.70;;;5.40;;
64037;SDS011;54641;50.168;8.492;2022-08-19T05:19:13;8.20;;;6.40;;
64037;SDS011;54641;50.168;8.492;2022-08-19T05:22:04;9.20;;;5.40;;
64037;SDS011;54641;50.168;8.492;2022-08-19T05:24:53;7.50;;;5.70;;
64037;SDS011;54641;50.168;8.492;2022-08-19T05:27:40;7.90;;;5.90;;
64037;SDS011;54641;50.168;8.492;2022-08-19T05:30:13;6.50;;;5.70;;
64037;SDS011;54641;50.168;8.492;2022-08-19T05:33:08;6.80;;;5.60;;
64037;SDS011;54641;50.168;8.492;2022-08-19T05:35:41;8.50;;;5.80;;
64037;SDS011;54641;50.168;8.492;2022-08-19T05:38:14;8.00;;;5.80;;
64037;SDS011;54641;50.168;8.492;2022-08-19T05:40:46;7.40;;;6.10;;
64037;SDS011;54641;50.168;8.492;2022-08-19T05:43:19;8.60;;;6.20;;
64037;SDS011;54641;50.168;8.492;2022-08-19T05:45:50;7.50;;;5.30;;
64037;SDS011;54641;50.168;8.492;2022-08-19T05:48:24;6.50;;;5.40;;
64037;SDS011;54641;50.168;8.492;2022-08-19T05:50:56;7.80;;;4.50;;
64037;SDS011;54641;50.168;8.492;2022-08-19T05:53:28;6.30;;;4.50;;
64037;SDS011;54641;50.168;8.492;2022-08-19T05:58:34;5.10;;;4.40;;
64037;SDS011;54641;50.168;8.492;2022-08-19T06:07:12;6.00;;;4.50;;
64037;SDS011;54641;50.168;8.492;2022-08-19T06:09:44;5.90;;;4.20;;
64037;SDS011;54641;50.168;8.492;2022-08-19T06:12:27;6.20;;;4.60;;
64037;SDS011;54641;50.168;8.492;2022-08-19T06:15:01;5.20;;;4.60;;
64037;SDS011;54641;50.168;8.492;2022-08-19T06:17:34;6.50;;;4.70;;
64037;SDS011;54641;50.168;8.492;2022-08-19T06:20:05;5.80;;;4.40;;
64037;SDS011;54641;50.168;8.492;2022-08-19T06:22:41;6.70;;;5.00;;
64037;SDS011;54641;50.168;8.492;2022-08-19T06:25:14;6.20;;;4.80;;
64037;SDS011;54641;50.168;8.492;2022-08-19T06:27:44;6.70;;;5.20;;
64037;SDS011;54641;50.168;8.492;2022-08-19T06:30:35;5.30;;;4.70;;
64037;SDS011;54641;50.168;8.492;2022-08-19T06:33:06;7.60;;;4.90;;
64037;SDS011;54641;50.168;8.492;2022-08-19T06:35:39;5.80;;;5.00;;
64037;SDS011;54641;50.168;8.492;2022-08-19T06:38:14;5.50;;;4.90;;
64037;SDS011;54641;50.168;8.492;2022-08-19T06:40:45;5.70;;;4.60;;
64037;SDS011;54641;50.168;8.492;2022-08-19T06:43:15;6.00;;;4.70;;
64037;SDS011;54641;50.168;8.492;2022-08-19T06:45:46;6.40;;;5.10;;
64037;SDS011;54641;50.168;8.492;2022-08-19T06:48:20;6.10;;;4.50;;
64037;SDS011;54641;50.168;8.492;2022-08-19T06:50:52;6.60;;;4.40;;
64037;SDS011;54641;50.168;8.492;2022-08-19T06:53:23;7.10;;;5.60;;
64037;SDS011;54641;50.168;8.492;2022-08-19T06:55:56;6.10;;;4.60;;
64037;SDS011;54641;50.168;8.492;2022-08-19T06:58:30;6.40;;;4.40;;
64037;SDS011;54641;50.168;8.492;2022-08-19T07:01:02;5.90;;;4.50;;
64037;SDS011;54641;50.168;8.492;2022-08-19T07:03:37;5.80;;;4.90;;
64037;SDS011;54641;50.168;8.492;2022-08-19T07:06:09;5.30;;;4.10;;
64037;SDS011;54641;50.168;8.492;2022-08-19T07:09:03;6.00;;;4.90;;
64037;SDS011;54641;50.168;8.492;2022-08-19T07:11:36;6.40;;;5.10;;
64037;SDS011;54641;50.168;8.492;2022-08-19T07:14:07;6.70;;;4.90;;
64037;SDS011;54641;50.168;8.492;2022-08-19T07:16:47;6.50;;;4.90;;
64037;SDS011;54641;50.168;8.492;2022-08-19T07:19:19;6.90;;;5.50;;
64037;SDS011;54641;50.168;8.492;2022-08-19T07:21:50;5.50;;;5.00;;
64037;SDS011;54641;50.168;8.492;2022-08-19T07:24:24;6.70;;;5.60;;
64037;SDS011;54641;50.168;8.492;2022-08-19T07:27:01;6.20;;;5.40;;
64037;SDS011;54641;50.168;8.492;2022-08-19T07:29:42;6.60;;;5.90;;
64037;SDS011;54641;50.168;8.492;2022-08-19T07:32:23;7.50;;;6.50;;
64037;SDS011;54641;50.168;8.492;2022-08-19T07:34:55;6.50;;;5.90;;
64037;SDS011;54641;50.168;8.492;2022-08-19T07:37:25;6.30;;;5.70;;
64037;SDS011;54641;50.168;8.492;2022-08-19T07:40:00;5.80;;;5.10;;
64037;SDS011;54641;50.168;8.492;2022-08-19T07:42:32;6.60;;;6.00;;
64037;SDS011;54641;50.168;8.492;2022-08-19T07:45:03;7.60;;;6.20;;
64037;SDS011;54641;50.168;8.492;2022-08-19T07:47:35;6.90;;;6.20;;
64037;SDS011;54641;50.168;8.492;2022-08-19T07:52:48;8.20;;;7.40;;
64037;SDS011;54641;50.168;8.492;2022-08-19T07:55:21;7.60;;;6.80;;
64037;SDS011;54641;50.168;8.492;2022-08-19T07:58:11;8.70;;;6.80;;
64037;SDS011;54641;50.168;8.492;2022-08-19T08:00:43;7.50;;;6.80;;
64037;SDS011;54641;50.168;8.492;2022-08-19T08:03:18;7.00;;;6.30;;
64037;SDS011;54641;50.168;8.492;2022-08-19T08:06:12;7.20;;;5.90;;
64037;SDS011;54641;50.168;8.492;2022-08-19T08:09:01;7.30;;;6.60;;
64037;SDS011;54641;50.168;8.492;2022-08-19T08:11:54;9.00;;;7.80;;
64037;SDS011;54641;50.168;8.492;2022-08-19T08:14:36;7.90;;;7.10;;
64037;SDS011;54641;50.168;8.492;2022-08-19T08:17:11;9.70;;;8.20;;
64037;SDS011;54641;50.168;8.492;2022-08-19T08:20:04;10.70;;;8.30;;
64037;SDS011;54641;50.168;8.492;2022-08-19T08:22:35;9.50;;;7.90;;
64037;SDS011;54641;50.168;8.492;2022-08-19T08:25:28;10.20;;;8.60;;
64037;SDS011;54641;50.168;8.492;2022-08-19T08:28:01;10.70;;;9.70;;
64037;SDS011;54641;50.168;8.492;2022-08-19T08:30:33;9.80;;;8.80;;
64037;SDS011;54641;50.168;8.492;2022-08-19T08:33:05;10.50;;;9.00;;
64037;SDS011;54641;50.168;8.492;2022-08-19T08:35:36;11.00;;;9.00;;
64037;SDS011;54641;50.168;8.492;2022-08-19T08:38:09;13.80;;;10.40;;
64037;SDS011;54641;50.168;8.492;2022-08-19T08:40:42;12.80;;;11.00;;
64037;SDS011;54641;50.168;8.492;2022-08-19T08:43:23;12.40;;;9.50;;
64037;SDS011;54641;50.168;8.492;2022-08-19T08:46:01;11.30;;;10.00;;
64037;SDS011;54641;50.168;8.492;2022-08-19T08:48:37;11.20;;;10.00;;
64037;SDS011;54641;50.168;8.492;2022-08-19T08:51:20;11.00;;;9.90;;
64037;SDS011;54641;50.168;8.492;2022-08-19T08:54:01;15.50;;;10.90;;
64037;SDS011;54641;50.168;8.492;2022-08-19T08:56:38;15.30;;;12.60;;
64037;SDS011;54641;50.168;8.492;2022-08-19T08:59:12;12.60;;;11.10;;
64037;SDS011;54641;50.168;8.492;2022-08-19T09:01:48;14.10;;;10.80;;
64037;SDS011;54641;50.168;8.492;2022-08-19T09:04:19;13.50;;;11.90;;
64037;SDS011;54641;50.168;8.492;2022-08-19T09:06:51;11.90;;;10.50;;
64037;SDS011;54641;50.168;8.492;2022-08-19T09:10:04;14.50;;;12.60;;
64037;SDS011;54641;50.168;8.492;2022-08-19T09:12:42;14.90;;;13.20;;
64037;SDS011;54641;50.168;8.492;2022-08-19T09:15:17;13.00;;;11.60;;
64037;SDS011;54641;50.168;8.492;2022-08-19T09:18:00;12.50;;;10.60;;
64037;SDS011;54641;50.168;8.492;2022-08-19T09:20:33;13.00;;;11.70;;
64037;SDS011;54641;50.168;8.492;2022-08-19T09:23:09;11.70;;;10.50;;
64037;SDS011;54641;50.168;8.492;2022-08-19T09:25:39;11.60;;;10.40;;
64037;SDS011;54641;50.168;8.492;2022-08-19T09:28:10;12.10;;;10.90;;
64037;SDS011;54641;50.168;8.492;2022-08-19T09:30:49;12.60;;;11.40;;
64037;SDS011;54641;50.168;8.492;2022-08-19T09:33:21;12.80;;;11.20;;
64037;SDS011;54641;50.168;8.492;2022-08-19T09:36:00;13.00;;;11.70;;
64037;SDS011;54641;50.168;8.492;2022-08-19T09:38:35;11.70;;;10.50;;
64037;SDS011;54641;50.168;8.492;2022-08-19T09:41:11;12.80;;;11.50;;
64037;SDS011;54641;50.168;8.492;2022-08-19T09:43:45;13.00;;;11.80;;
64037;SDS011;54641;50.168;8.492;2022-08-19T09:46:20;12.10;;;10.90;;
64037;SDS011;54641;50.168;8.492;2022-08-19T09:48:50;11.80;;;10.80;;
64037;SDS011;54641;50.168;8.492;2022-08-19T09:51:22;12.10;;;11.00;;
64037;SDS011;54641;50.168;8.492;2022-08-19T09:53:58;11.40;;;9.90;;
64037;SDS011;54641;50.168;8.492;2022-08-19T09:56:31;11.30;;;10.30;;
64037;SDS011;54641;50.168;8.492;2022-08-19T09:59:02;12.20;;;10.90;;
64037;SDS011;54641;50.168;8.492;2022-08-19T10:01:33;12.90;;;11.60;;
64037;SDS011;54641;50.168;8.492;2022-08-19T10:04:03;12.50;;;11.40;;
64037;SDS011;54641;50.168;8.492;2022-08-19T10:06:49;11.20;;;10.00;;
64037;SDS011;54641;50.168;8.492;2022-08-19T10:09:22;12.20;;;11.10;;
64037;SDS011;54641;50.168;8.492;2022-08-19T10:12:01;12.90;;;11.70;;
64037;SDS011;54641;50.168;8.492;2022-08-19T10:14:38;14.00;;;12.60;;
64037;SDS011;54641;50.168;8.492;2022-08-19T10:17:08;12.30;;;11.10;;
64037;SDS011;54641;50.168;8.492;2022-08-19T10:19:46;12.90;;;11.80;;
64037;SDS011;54641;50.168;8.492;2022-08-19T10:22:22;12.40;;;11.30;;
64037;SDS011;54641;50.168;8.492;2022-08-19T10:24:53;12.50;;;11.30;;
64037;SDS011;54641;50.168;8.492;2022-08-19T10:27:24;14.80;;;13.20;;
64037;SDS011;54641;50.168;8.492;2022-08-19T10:29:58;13.20;;;12.00;;
64037;SDS011;54641;50.168;8.492;2022-08-19T10:32:29;12.60;;;11.40;;
64037;SDS011;54641;50.168;8.492;2022-08-19T10:35:01;12.20;;;10.90;;
64037;SDS011;54641;50.168;8.492;2022-08-19T10:37:35;14.40;;;13.10;;
64037;SDS011;54641;50.168;8.492;2022-08-19T10:40:23;14.80;;;13.50;;
64037;SDS011;54641;50.168;8.492;2022-08-19T10:42:55;17.00;;;15.40;;
64037;SDS011;54641;50.168;8.492;2022-08-19T10:45:25;16.90;;;15.40;;
64037;SDS011;54641;50.168;8.492;2022-08-19T10:47:56;18.30;;;16.50;;
64037;SDS011;54641;50.168;8.492;2022-08-19T10:50:26;16.50;;;15.00;;
64037;SDS011;54641;50.168;8.492;2022-08-19T10:53:15;16.90;;;15.50;;
64037;SDS011;54641;50.168;8.492;2022-08-19T10:55:49;16.40;;;14.90;;
64037;SDS011;54641;50.168;8.492;2022-08-19T10:58:37;16.40;;;15.00;;
64037;SDS011;54641;50.168;8.492;2022-08-19T11:03:38;17.00;;;15.40;;
64037;SDS011;54641;50.168;8.492;2022-08-19T11:06:08;16.20;;;14.60;;
64037;SDS011;54641;50.168;8.492;2022-08-19T11:08:39;14.20;;;13.00;;
64037;SDS011;54641;50.168;8.492;2022-08-19T11:11:16;15.20;;;13.60;;
64037;SDS011;54641;50.168;8.492;2022-08-19T11:13:46;15.50;;;14.10;;
64037;SDS011;54641;50.168;8.492;2022-08-19T11:16:18;13.80;;;12.60;;
64037;SDS011;54641;50.168;8.492;2022-08-19T11:18:50;13.30;;;12.10;;
64037;SDS011;54641;50.168;8.492;2022-08-19T11:21:23;12.90;;;11.80;;
64037;SDS011;54641;50.168;8.492;2022-08-19T11:23:56;13.60;;;12.40;;
64037;SDS011;54641;50.168;8.492;2022-08-19T11:26:28;13.70;;;12.40;;
64037;SDS011;54641;50.168;8.492;2022-08-19T11:28:59;13.30;;;12.20;;
64037;SDS011;54641;50.168;8.492;2022-08-19T11:34:00;12.60;;;11.40;;
64037;SDS011;54641;50.168;8.492;2022-08-19T11:36:32;12.90;;;11.70;;
64037;SDS011;54641;50.168;8.492;2022-08-19T11:39:03;11.40;;;10.40;;
64037;SDS011;54641;50.168;8.492;2022-08-19T11:41:34;11.70;;;10.70;;
64037;SDS011;54641;50.168;8.492;2022-08-19T11:46:35;12.10;;;10.90;;
64037;SDS011;54641;50.168;8.492;2022-08-19T11:49:09;10.80;;;9.90;;
64037;SDS011;54641;50.168;8.492;2022-08-19T11:51:41;11.60;;;10.40;;
64037;SDS011;54641;50.168;8.492;2022-08-19T11:54:13;11.20;;;10.10;;
64037;SDS011;54641;50.168;8.492;2022-08-19T11:56:45;10.80;;;9.70;;
64037;SDS011;54641;50.168;8.492;2022-08-19T11:59:17;9.90;;;9.00;;
64037;SDS011;54641;50.168;8.492;2022-08-19T12:01:49;9.80;;;8.80;;
64037;SDS011;54641;50.168;8.492;2022-08-19T12:04:21;11.10;;;8.90;;
64037;SDS011;54641;50.168;8.492;2022-08-19T12:06:52;9.00;;;8.20;;
64037;SDS011;54641;50.168;8.492;2022-08-19T12:09:22;8.80;;;8.00;;
64037;SDS011;54641;50.168;8.492;2022-08-19T12:11:58;8.90;;;8.10;;
64037;SDS011;54641;50.168;8.492;2022-08-19T12:14:30;8.80;;;8.10;;
64037;SDS011;54641;50.168;8.492;2022-08-19T12:17:00;8.90;;;8.10;;
64037;SDS011;54641;50.168;8.492;2022-08-19T12:19:37;8.60;;;7.80;;
64037;SDS011;54641;50.168;8.492;2022-08-19T12:22:07;8.90;;;8.10;;
64037;SDS011;54641;50.168;8.492;2022-08-19T12:24:38;7.70;;;7.10;;
64037;SDS011;54641;50.168;8.492;2022-08-19T12:27:09;9.10;;;7.60;;
64037;SDS011;54641;50.168;8.492;2022-08-19T12:32:30;8.20;;;7.50;;
64037;SDS011;54641;50.168;8.492;2022-08-19T12:35:01;9.00;;;8.20;;
64037;SDS011;54641;50.168;8.492;2022-08-19T12:37:34;9.70;;;7.40;;
64037;SDS011;54641;50.168;8.492;2022-08-19T12:40:06;8.10;;;7.40;;
64037;SDS011;54641;50.168;8.492;2022-08-19T12:42:40;7.80;;;7.10;;
64037;SDS011;54641;50.168;8.492;2022-08-19T12:45:13;7.00;;;6.40;;
64037;SDS011;54641;50.168;8.492;2022-08-19T12:47:49;7.30;;;6.30;;
64037;SDS011;54641;50.168;8.492;2022-08-19T12:50:22;6.90;;;6.30;;
64037;SDS011;54641;50.168;8.492;2022-08-19T12:52:52;6.40;;;5.80;;
64037;SDS011;54641;50.168;8.492;2022-08-19T12:55:24;6.70;;;6.10;;
64037;SDS011;54641;50.168;8.492;2022-08-19T12:57:56;6.30;;;5.80;;
64037;SDS011;54641;50.168;8.492;2022-08-19T13:00:29;6.90;;;6.10;;
64037;SDS011;54641;50.168;8.492;2022-08-19T13:03:00;6.40;;;5.80;;
64037;SDS011;54641;50.168;8.492;2022-08-19T13:05:32;6.50;;;6.00;;
64037;SDS011;54641;50.168;8.492;2022-08-19T13:08:04;5.80;;;5.30;;
64037;SDS011;54641;50.168;8.492;2022-08-19T13:10:36;6.60;;;5.40;;
64037;SDS011;54641;50.168;8.492;2022-08-19T13:13:07;6.00;;;5.30;;
64037;SDS011;54641;50.168;8.492;2022-08-19T13:15:40;7.10;;;6.50;;
64037;SDS011;54641;50.168;8.492;2022-08-19T13:18:13;7.10;;;6.40;;
64037;SDS011;54641;50.168;8.492;2022-08-19T13:20:44;6.90;;;5.70;;
64037;SDS011;54641;50.168;8.492;2022-08-19T13:23:19;5.40;;;4.90;;
64037;SDS011;54641;50.168;8.492;2022-08-19T13:25:56;5.90;;;5.30;;
64037;SDS011;54641;50.168;8.492;2022-08-19T13:28:27;5.90;;;5.40;;
64037;SDS011;54641;50.168;8.492;2022-08-19T13:31:19;6.10;;;5.60;;
64037;SDS011;54641;50.168;8.492;2022-08-19T13:34:10;6.30;;;5.70;;
64037;SDS011;54641;50.168;8.492;2022-08-19T13:41:44;7.20;;;6.10;;
64037;SDS011;54641;50.168;8.492;2022-08-19T13:44:17;6.40;;;5.80;;
64037;SDS011;54641;50.168;8.492;2022-08-19T13:46:48;7.60;;;5.80;;
64037;SDS011;54641;50.168;8.492;2022-08-19T13:49:21;5.70;;;5.20;;
64037;SDS011;54641;50.168;8.492;2022-08-19T13:51:54;6.00;;;5.50;;
64037;SDS011;54641;50.168;8.492;2022-08-19T13:54:26;6.90;;;6.10;;
64037;SDS011;54641;50.168;8.492;2022-08-19T13:57:01;5.70;;;5.20;;
64037;SDS011;54641;50.168;8.492;2022-08-19T13:59:33;5.20;;;4.80;;
64037;SDS011;54641;50.168;8.492;2022-08-19T14:02:04;6.40;;;5.70;;
64037;SDS011;54641;50.168;8.492;2022-08-19T14:04:39;6.30;;;5.50;;
64037;SDS011;54641;50.168;8.492;2022-08-19T14:07:11;8.90;;;5.70;;
64037;SDS011;54641;50.168;8.492;2022-08-19T14:09:45;6.00;;;5.30;;
64037;SDS011;54641;50.168;8.492;2022-08-19T14:12:20;5.90;;;5.40;;
64037;SDS011;54641;50.168;8.492;2022-08-19T14:14:57;5.40;;;4.90;;
64037;SDS011;54641;50.168;8.492;2022-08-19T14:17:33;6.30;;;5.80;;
64037;SDS011;54641;50.168;8.492;2022-08-19T14:20:09;5.60;;;5.10;;
64037;SDS011;54641;50.168;8.492;2022-08-19T14:22:47;5.90;;;5.30;;
64037;SDS011;54641;50.168;8.492;2022-08-19T14:25:23;5.70;;;5.20;;
64037;SDS011;54641;50.168;8.492;2022-08-19T14:27:58;5.80;;;5.20;;
64037;SDS011;54641;50.168;8.492;2022-08-19T14:30:32;7.10;;;6.40;;
64037;SDS011;54641;50.168;8.492;2022-08-19T14:33:09;6.50;;;5.90;;
64037;SDS011;54641;50.168;8.492;2022-08-19T14:35:44;6.90;;;6.30;;
64037;SDS011;54641;50.168;8.492;2022-08-19T14:38:18;5.80;;;5.20;;
64037;SDS011;54641;50.168;8.492;2022-08-19T14:41:10;8.10;;;5.80;;
64037;SDS011;54641;50.168;8.492;2022-08-19T14:43:46;6.10;;;5.50;;
64037;SDS011;54641;50.168;8.492;2022-08-19T14:46:22;5.20;;;4.80;;
64037;SDS011;54641;50.168;8.492;2022-08-19T14:48:58;5.40;;;4.70;;
64037;SDS011;54641;50.168;8.492;2022-08-19T14:51:37;5.40;;;4.60;;
64037;SDS011;54641;50.168;8.492;2022-08-19T14:54:12;5.70;;;5.10;;
64037;SDS011;54641;50.168;8.492;2022-08-19T14:56:46;5.50;;;5.00;;
64037;SDS011;54641;50.168;8.492;2022-08-19T14:59:20;6.40;;;5.60;;
64037;SDS011;54641;50.168;8.492;2022-08-19T15:08:09;9.10;;;6.10;;
64037;SDS011;54641;50.168;8.492;2022-08-19T15:13:10;5.30;;;4.80;;
64037;SDS011;54641;50.168;8.492;2022-08-19T15:15:41;5.60;;;4.80;;
64037;SDS011;54641;50.168;8.492;2022-08-19T15:18:13;5.80;;;4.50;;
64037;SDS011;54641;50.168;8.492;2022-08-19T15:23:17;5.40;;;4.90;;
64037;SDS011;54641;50.168;8.492;2022-08-19T15:25:49;6.70;;;5.70;;
64037;SDS011;54641;50.168;8.492;2022-08-19T15:28:23;6.90;;;6.20;;
64037;SDS011;54641;50.168;8.492;2022-08-19T15:30:55;6.50;;;5.90;;
64037;SDS011;54641;50.168;8.492;2022-08-19T15:33:25;7.00;;;6.30;;
64037;SDS011;54641;50.168;8.492;2022-08-19T15:35:57;6.90;;;5.70;;
64037;SDS011;54641;50.168;8.492;2022-08-19T15:38:27;6.30;;;5.70;;
64037;SDS011;54641;50.168;8.492;2022-08-19T15:41:03;6.00;;;5.40;;
64037;SDS011;54641;50.168;8.492;2022-08-19T15:43:49;6.20;;;5.60;;
64037;SDS011;54641;50.168;8.492;2022-08-19T15:46:22;7.40;;;5.70;;
64037;SDS011;54641;50.168;8.492;2022-08-19T15:48:55;7.00;;;6.30;;
64037;SDS011;54641;50.168;8.492;2022-08-19T15:51:28;6.60;;;5.90;;
64037;SDS011;54641;50.168;8.492;2022-08-19T15:54:02;6.60;;;6.00;;
64037;SDS011;54641;50.168;8.492;2022-08-19T15:59:25;6.90;;;6.10;;
64037;SDS011;54641;50.168;8.492;2022-08-19T16:02:14;8.70;;;7.30;;
64037;SDS011;54641;50.168;8.492;2022-08-19T16:05:05;7.30;;;6.60;;
64037;SDS011;54641;50.168;8.492;2022-08-19T16:07:55;8.50;;;6.60;;
64037;SDS011;54641;50.168;8.492;2022-08-19T16:10:26;7.30;;;6.60;;
64037;SDS011;54641;50.168;8.492;2022-08-19T16:12:57;7.20;;;6.50;;
64037;SDS011;54641;50.168;8.492;2022-08-19T16:15:31;7.90;;;7.10;;
64037;SDS011;54641;50.168;8.492;2022-08-19T16:18:02;7.40;;;6.70;;